Terminal Aerodrome Forecast
Issued by NWS Bismarck, ND

Home | Current Version | Previous Version | Graphics & Text | Print | Product List | Glossary On
Versions: 1 2 3 4 5 6 7 8 9 10 11 12 13 14 15 16 17 18
000
FTUS43 KBIS 310200 AAA
TAFBIS
TAF AMD
KBIS 310246Z 3103/3124 12009KT P6SM SCT070
     FM310500 13009KT P6SM -SHRA VCTS BKN050CB
      TEMPO 3105/3109 3SM TSRA SCT015 BKN030CB
     FM311100 32008KT P6SM BKN015
     FM311600 31011KT P6SM SCT015 BKN050=

USA.gov is the U.S. government's official web portal to all federal, state and local government web resources and services.